Time;durP1;ratioP1;P1;durP2;ratioP2;P2;SDS_P1;SDS_P2;PMS_P1;PMS_P2;Temp;Humidity;BMP_temperature;BMP_pressure;BME280_temperature;BME280_humidity;BME280_pressure;Samples;Min_cycle;Max_cycle;Signal;HPM_P1;HPM_P2
2022/02/19 00:01:29;;;;;;;;;;;180.00;2252.80;;;;;;5052963;28;20068;-80
2022/02/19 00:03:56;;;;;;;19.42;8.20;;;180.00;2252.80;;;;;;5052812;28;19977;-76
2022/02/19 00:06:22;;;;;;;22.33;9.32;;;180.00;2252.80;;;;;;5053020;28;20096;-76
2022/02/19 00:08:48;;;;;;;;;;;180.00;2252.80;;;;;;5053338;28;20044;-78
2022/02/19 00:11:13;;;;;;;21.35;8.77;;;180.00;2252.80;;;;;;5050600;28;19939;-79
2022/02/19 00:13:39;;;;;;;;;;;180.00;2252.80;;;;;;5052808;28;20025;-79
2022/02/19 00:16:06;;;;;;;15.52;7.22;;;180.00;2252.80;;;;;;5052918;28;19904;-77
2022/02/19 00:18:32;;;;;;;16.95;7.15;;;180.00;2252.80;;;;;;5050662;28;20402;-77
2022/02/19 00:20:58;;;;;;;18.30;6.95;;;180.10;2252.80;;;;;;5052944;28;20032;-78
2022/02/19 00:23:29;;;;;;;17.00;7.10;;;180.00;2252.80;;;;;;5051278;28;20390;-79
2022/02/19 00:25:55;;;;;;;21.63;8.57;;;180.00;2252.80;;;;;;5052663;28;20070;-76
2022/02/19 00:28:21;;;;;;;17.92;8.48;;;180.10;2252.80;;;;;;5045863;28;20025;-78
2022/02/19 00:30:46;;;;;;;;;;;180.10;2252.80;;;;;;5031557;28;20045;-76
2022/02/19 00:33:12;;;;;;;18.00;6.65;;;180.00;2252.80;;;;;;5032734;28;20347;-79
2022/02/19 00:35:38;;;;;;;;;;;179.90;2252.80;;;;;;5031561;28;20021;-79
2022/02/19 00:38:04;;;;;;;19.50;6.38;;;179.90;2252.80;;;;;;5040978;28;20011;-78
2022/02/19 00:40:29;;;;;;;;;;;179.90;2252.80;;;;;;5051482;28;20116;-79
2022/02/19 00:42:55;;;;;;;12.27;6.35;;;179.80;2252.80;;;;;;5052768;28;20473;-79
2022/02/19 00:45:20;;;;;;;;;;;179.80;2252.80;;;;;;5052732;28;20017;-78
2022/02/19 00:47:46;;;;;;;14.57;5.95;;;179.80;2252.80;;;;;;5052432;28;20002;-76
2022/02/19 00:50:13;;;;;;;;;;;179.70;2252.80;;;;;;5052507;28;20483;-79
2022/02/19 00:52:39;;;;;;;14.45;5.55;;;179.80;2252.80;;;;;;5052435;28;19904;-77
2022/02/19 00:55:05;;;;;;;;;;;179.80;2252.80;;;;;;5052702;28;20075;-76
2022/02/19 00:57:31;;;;;;;15.40;6.05;;;179.80;2252.80;;;;;;5050990;28;20329;-76
2022/02/19 00:59:56;;;;;;;;;;;179.80;2252.80;;;;;;5052469;28;20045;-77
2022/02/19 01:02:22;;;;;;;16.02;6.32;;;179.90;2252.80;;;;;;5050823;28;19916;-79
2022/02/19 01:04:48;;;;;;;;;;;179.90;2252.80;;;;;;5052616;28;20471;-76
2022/02/19 01:07:13;;;;;;;19.60;7.28;;;180.00;2252.80;;;;;;5050670;28;19958;-79
2022/02/19 01:09:39;;;;;;;;;;;179.90;2252.80;;;;;;5052618;28;20025;-76
2022/02/19 01:12:05;;;;;;;18.65;6.75;;;179.90;2252.80;;;;;;5052293;28;20411;-78
2022/02/19 01:14:31;;;;;;;19.58;7.65;;;179.90;2252.80;;;;;;5052615;28;20029;-80
2022/02/19 01:16:56;;;;;;;;;;;179.90;2252.80;;;;;;5052448;28;20487;-76
2022/02/19 01:19:22;;;;;;;21.70;7.00;;;179.90;2252.80;;;;;;5051968;28;19967;-79
2022/02/19 01:21:48;;;;;;;;;;;179.90;2252.80;;;;;;5051362;28;20595;-78
2022/02/19 01:24:13;;;;;;;22.05;7.97;;;179.80;2252.80;;;;;;5056278;28;19905;-79
2022/02/19 01:26:39;;;;;;;;;;;179.70;2252.80;;;;;;5056144;28;20021;-77
2022/02/19 01:29:05;;;;;;;21.85;7.57;;;179.70;2252.80;;;;;;5054531;28;19905;-80
2022/02/19 01:31:31;;;;;;;;;;;179.70;2252.80;;;;;;5056193;28;20033;-78
2022/02/19 01:33:57;;;;;;;22.65;8.73;;;179.70;2252.80;;;;;;5055648;28;20361;-76
2022/02/19 01:36:23;;;;;;;;;;;179.60;2252.80;;;;;;5054845;28;20056;-79
2022/02/19 01:38:49;;;;;;;26.58;7.85;;;179.50;2252.80;;;;;;5054265;28;19924;-78
2022/02/19 01:41:14;;;;;;;;;;;179.40;2252.80;;;;;;5056124;28;20449;-80
2022/02/19 01:43:40;;;;;;;21.30;6.82;;;179.40;2252.80;;;;;;5055479;28;19958;-79
2022/02/19 01:46:05;;;;;;;;;;;179.30;2252.80;;;;;;5054558;28;20033;-78
2022/02/19 01:48:31;;;;;;;20.70;7.80;;;179.20;2252.80;;;;;;5055592;28;19909;-78
2022/02/19 01:50:57;;;;;;;;;;;179.20;2252.80;;;;;;5054534;28;20041;-79
2022/02/19 01:53:23;;;;;;;22.27;8.35;;;179.20;2252.80;;;;;;5055267;28;20365;-77
2022/02/19 01:55:49;;;;;;;;;;;179.20;2252.80;;;;;;5055674;28;20028;-75
2022/02/19 01:58:15;;;;;;;15.18;5.38;;;179.20;2252.80;;;;;;5055335;28;20434;-79
2022/02/19 02:00:42;;;;;;;;;;;179.20;2252.80;;;;;;5055489;28;20483;-75
2022/02/19 02:03:07;;;;;;;20.27;6.65;;;179.20;2252.80;;;;;;5055147;28;19956;-78
2022/02/19 02:05:36;;;;;;;;;;;179.20;2252.80;;;;;;5053320;28;20063;-78
2022/02/19 02:08:06;;;;;;;17.83;6.78;;;179.30;2252.80;;;;;;5055122;28;19961;-78
2022/02/19 02:10:35;;;;;;;17.23;7.20;;;179.40;2252.80;;;;;;5053840;28;20112;-76
2022/02/19 02:13:04;;;;;;;17.60;6.20;;;179.30;2252.80;;;;;;5053865;28;20037;-78
2022/02/19 02:15:32;;;;;;;22.35;7.18;;;179.30;2252.80;;;;;;5054937;28;20028;-76
2022/02/19 02:17:59;;;;;;;23.38;8.43;;;179.30;2252.80;;;;;;5054837;28;20037;-77
2022/02/19 02:20:26;;;;;;;18.92;7.28;;;179.30;2252.80;;;;;;5053874;28;20114;-78
2022/02/19 02:22:52;;;;;;;18.63;8.68;;;179.30;2252.80;;;;;;5054770;28;20035;-79
2022/02/19 02:25:21;;;;;;;;;;;179.30;2252.80;;;;;;5055131;28;20037;-79
2022/02/19 02:27:47;;;;;;;20.65;7.93;;;179.30;2252.80;;;;;;5053289;28;19908;-79
2022/02/19 02:30:15;;;;;;;;;;;179.30;2252.80;;;;;;5053624;28;20055;-78
2022/02/19 02:32:41;;;;;;;29.52;7.43;;;179.30;2252.80;;;;;;5054486;28;19904;-79
2022/02/19 02:35:06;;;;;;;;;;;179.20;2252.80;;;;;;5054003;28;20051;-80
2022/02/19 02:37:32;;;;;;;26.63;7.45;;;179.30;2252.80;;;;;;5053108;28;19913;-78
2022/02/19 02:39:58;;;;;;;;;;;179.30;2252.80;;;;;;5054864;28;20100;-78
2022/02/19 02:42:24;;;;;;;15.07;6.15;;;179.30;2252.80;;;;;;5053470;28;19947;-77
2022/02/19 02:44:51;;;;;;;;;;;179.30;2252.80;;;;;;5055019;28;20083;-78
2022/02/19 02:47:17;;;;;;;15.75;6.10;;;179.60;2252.80;;;;;;5053489;28;19980;-79
2022/02/19 02:49:42;;;;;;;;;;;179.40;2252.80;;;;;;5054563;28;20029;-77
2022/02/19 02:52:09;;;;;;;10.85;6.10;;;179.40;2252.80;;;;;;5054600;28;19905;-77
2022/02/19 02:54:36;;;;;;;14.10;5.45;;;179.30;2252.80;;;;;;5053154;28;20403;-78
2022/02/19 02:57:02;;;;;;;15.43;6.72;;;179.30;2252.80;;;;;;5054439;28;20059;-79
2022/02/19 02:59:28;;;;;;;17.85;5.93;;;179.30;2252.80;;;;;;5054143;28;20020;-76
2022/02/19 03:01:54;;;;;;;;;;;154.50;2252.80;;;;;;5054545;28;20067;-79
2022/02/19 03:04:20;;;;;;;19.70;7.45;;;179.20;2252.80;;;;;;5052680;28;19926;-79
2022/02/19 03:06:45;;;;;;;;;;;179.20;2252.80;;;;;;5054068;28;20130;-76
2022/02/19 03:09:11;;;;;;;18.73;7.15;;;154.50;2252.80;;;;;;5054139;28;19905;-78
2022/02/19 03:11:37;;;;;;;;;;;154.50;2252.80;;;;;;5052984;28;20075;-79
2022/02/19 03:14:05;;;;;;;16.67;6.65;;;154.50;2252.80;;;;;;5053977;28;19999;-76
2022/02/19 03:16:32;;;;;;;13.93;6.38;;;154.50;2252.80;;;;;;5052698;28;20031;-77
2022/02/19 03:18:58;;;;;;;19.35;6.28;;;179.20;2252.80;;;;;;5053969;28;20025;-76
2022/02/19 03:21:24;;;;;;;;;;;179.20;2252.80;;;;;;5053939;28;20028;-79
2022/02/19 03:23:52;;;;;;;16.98;6.25;;;179.20;2252.80;;;;;;5053842;28;20374;-79
2022/02/19 03:26:17;;;;;;;14.15;5.65;;;179.20;2252.80;;;;;;5052356;28;20032;-78
2022/02/19 03:28:43;;;;;;;;;;;179.20;2252.80;;;;;;5052624;28;20085;-75
2022/02/19 03:31:09;;;;;;;14.18;5.57;;;179.30;2252.80;;;;;;5053444;28;19909;-78
2022/02/19 03:33:34;;;;;;;;;;;179.40;2252.80;;;;;;5052073;28;20040;-77
2022/02/19 03:36:00;;;;;;;12.18;5.60;;;179.40;2252.80;;;;;;5053278;28;19943;-78
2022/02/19 03:38:26;;;;;;;;;;;179.40;2252.80;;;;;;5052197;28;20033;-79
2022/02/19 03:40:51;;;;;;;18.95;6.22;;;179.40;2252.80;;;;;;5053375;28;19904;-79
2022/02/19 03:43:17;;;;;;;;;;;179.40;2252.80;;;;;;5051667;28;20064;-76
2022/02/19 03:45:45;;;;;;;13.95;6.20;;;179.30;2252.80;;;;;;5053024;28;19951;-75
2022/02/19 03:48:12;;;;;;;14.05;6.20;;;179.30;2252.80;;;;;;5053009;28;20019;-79
2022/02/19 03:50:37;;;;;;;15.10;6.28;;;179.20;2252.80;;;;;;5053267;28;20110;-76
2022/02/19 03:53:04;;;;;;;;;;;179.20;2252.80;;;;;;5053310;28;20056;-77
2022/02/19 03:55:30;;;;;;;16.25;6.35;;;154.50;2252.80;;;;;;5053151;28;20370;-75
2022/02/19 03:57:55;;;;;;;;;;;179.40;2252.80;;;;;;5052169;28;20098;-80
2022/02/19 04:00:21;;;;;;;15.27;5.45;;;179.30;2252.80;;;;;;5051836;28;19990;-79
2022/02/19 04:02:48;;;;;;;13.75;5.97;;;179.40;2252.80;;;;;;5052870;28;20072;-77
2022/02/19 04:05:14;;;;;;;20.40;6.40;;;179.40;2252.80;;;;;;5052645;28;20025;-77
2022/02/19 04:07:41;;;;;;;19.73;6.07;;;179.20;2252.80;;;;;;5053288;28;20025;-79
2022/02/19 04:10:08;;;;;;;16.92;7.10;;;154.50;2252.80;;;;;;5052563;28;20036;-79
2022/02/19 04:12:35;;;;;;;14.10;6.03;;;154.50;2252.80;;;;;;5051321;28;20037;-79
2022/02/19 04:15:01;;;;;;;14.02;5.43;;;154.50;2252.80;;;;;;5051467;28;20036;-77
2022/02/19 04:17:27;;;;;;;15.13;5.78;;;179.20;2252.80;;;;;;5052681;28;20091;-76
2022/02/19 04:19:53;;;;;;;;;;;179.20;2252.80;;;;;;5052924;28;20021;-79
2022/02/19 04:22:23;;;;;;;15.07;5.43;;;179.20;2252.80;;;;;;5051192;28;19905;-77
2022/02/19 04:24:50;;;;;;;11.73;6.10;;;179.20;2252.80;;;;;;5051460;28;20025;-76
2022/02/19 04:27:17;;;;;;;15.18;5.78;;;154.50;2252.80;;;;;;5051182;28;20029;-77
2022/02/19 04:29:43;;;;;;;9.38;4.72;;;154.50;2252.80;;;;;;5052409;28;20028;-77
2022/02/19 04:32:09;;;;;;;;;;;179.20;2252.80;;;;;;5052739;28;20025;-80
2022/02/19 04:34:35;;;;;;;14.88;5.70;;;179.20;2252.80;;;;;;5051372;28;19912;-78
2022/02/19 04:37:01;;;;;;;15.73;5.18;;;154.40;2252.80;;;;;;5052161;28;20067;-78
2022/02/19 04:39:27;;;;;;;;;;;154.40;2252.80;;;;;;5053093;28;20429;-77
2022/02/19 04:41:52;;;;;;;16.45;5.43;;;154.40;2252.80;;;;;;5052125;28;19911;-79
2022/02/19 04:44:18;;;;;;;;;;;154.30;2252.80;;;;;;5052886;28;20021;-76
2022/02/19 04:46:44;;;;;;;15.15;5.20;;;154.30;2252.80;;;;;;5051160;28;19916;-79
2022/02/19 04:49:10;;;;;;;;;;;154.40;2252.80;;;;;;5052791;28;20029;-76
2022/02/19 04:51:37;;;;;;;13.90;5.22;;;154.30;2252.80;;;;;;5052429;28;19904;-76
2022/02/19 04:54:02;;;;;;;12.07;5.20;;;154.40;2252.80;;;;;;5051131;28;20116;-79
2022/02/19 04:56:28;;;;;;;;;;;154.30;2252.80;;;;;;5052822;28;20467;-79
2022/02/19 04:58:54;;;;;;;14.27;5.32;;;154.30;2252.80;;;;;;5056341;28;20386;-76
2022/02/19 05:01:19;;;;;;;;;;;154.50;2252.80;;;;;;5056785;28;20475;-78
2022/02/19 05:03:45;;;;;;;13.88;4.80;;;154.50;2252.80;;;;;;5055112;28;19905;-78
2022/02/19 05:06:13;;;;;;;;;;;154.40;2252.80;;;;;;5056774;28;20056;-76
2022/02/19 05:08:40;;;;;;;16.15;4.43;;;154.30;2252.80;;;;;;5054973;28;19996;-76
2022/02/19 05:11:06;;;;;;;17.33;6.13;;;154.30;2252.80;;;;;;5056188;28;20063;-77
2022/02/19 05:13:31;;;;;;;;;;;154.30;2252.80;;;;;;5056689;28;20032;-78
2022/02/19 05:15:57;;;;;;;13.82;5.97;;;154.30;2252.80;;;;;;5055826;28;19908;-75
2022/02/19 05:18:23;;;;;;;;;;;154.40;2252.80;;;;;;5055366;28;20063;-77
2022/02/19 05:20:48;;;;;;;29.60;11.88;;;154.50;2252.80;;;;;;5055813;28;19955;-77
2022/02/19 05:23:14;;;;;;;;;;;154.40;2252.80;;;;;;5055450;28;20497;-77
2022/02/19 05:25:41;;;;;;;17.73;7.30;;;179.20;2252.80;;;;;;5055851;28;19912;-78
2022/02/19 05:28:08;;;;;;;13.82;4.90;;;154.50;2252.80;;;;;;5054726;28;20132;-76
2022/02/19 05:30:35;;;;;;;19.40;6.63;;;154.50;2252.80;;;;;;5055577;28;20037;-76
2022/02/19 05:33:00;;;;;;;19.65;6.32;;;179.30;2252.80;;;;;;5055897;28;20049;-79
2022/02/19 05:35:26;;;;;;;;;;;154.50;2252.80;;;;;;5055981;28;20052;-79
2022/02/19 05:37:52;;;;;;;17.75;6.38;;;154.50;2252.80;;;;;;5053958;28;19919;-78
2022/02/19 05:40:17;;;;;;;;;;;154.50;2252.80;;;;;;5055066;28;20021;-77
2022/02/19 05:42:43;;;;;;;17.15;7.25;;;154.50;2252.80;;;;;;5055349;28;19908;-78
2022/02/19 05:45:09;;;;;;;;;;;154.50;2252.80;;;;;;5056189;28;20029;-78
2022/02/19 05:47:34;;;;;;;22.02;7.22;;;154.40;2252.80;;;;;;5055618;28;20000;-77
2022/02/19 05:50:00;;;;;;;;;;;154.40;2252.80;;;;;;5054880;28;20025;-80
2022/02/19 05:52:26;;;;;;;17.00;6.97;;;154.30;2252.80;;;;;;5054153;28;19905;-79
2022/02/19 05:54:54;;;;;;;;;;;154.50;2252.80;;;;;;5055899;28;20021;-77
2022/02/19 05:57:23;;;;;;;22.55;7.20;;;179.30;2252.80;;;;;;5055291;28;20336;-78
2022/02/19 05:59:49;;;;;;;14.38;6.40;;;179.40;2252.80;;;;;;5054308;28;20022;-77
2022/02/19 06:02:15;;;;;;;;;;;179.50;2252.80;;;;;;5055485;28;20111;-77
2022/02/19 06:04:41;;;;;;;24.15;8.07;;;179.70;2252.80;;;;;;5055088;28;19908;-79
2022/02/19 06:07:06;;;;;;;;;;;179.80;2252.80;;;;;;5054439;28;20029;-79
2022/02/19 06:09:32;;;;;;;13.05;5.35;;;180.00;2252.80;;;;;;5055020;28;20319;-77
2022/02/19 06:11:58;;;;;;;;;;;180.10;2252.80;;;;;;5055585;28;20464;-77
2022/02/19 06:14:23;;;;;;;16.08;5.30;;;204.80;2252.80;;;;;;5053827;28;19904;-76
2022/02/19 06:16:49;;;;;;;;;;;204.90;2227.20;;;;;;5055976;28;20525;-79
2022/02/19 06:19:16;;;;;;;12.35;5.43;;;204.90;2201.60;;;;;;5053447;28;20251;-76
2022/02/19 06:21:42;;;;;;;15.43;6.65;;;205.00;2176.00;;;;;;5055230;28;20554;-76
2022/02/19 06:24:07;;;;;;;;;;;205.00;2201.60;;;;;;5055849;28;20056;-82
2022/02/19 06:26:33;;;;;;;23.23;6.57;;;205.00;2201.60;;;;;;5055066;28;19904;-84
2022/02/19 06:28:59;;;;;;;;;;;204.80;2227.20;;;;;;5055404;28;20067;-80
2022/02/19 06:31:24;;;;;;;16.30;7.18;;;204.80;2252.80;;;;;;5054784;28;19959;-76
2022/02/19 06:33:51;;;;;;;;;;;204.90;2252.80;;;;;;5055599;28;20029;-81
2022/02/19 06:36:18;;;;;;;23.10;8.65;;;205.00;2227.20;;;;;;5044991;28;20354;-83
2022/02/19 06:38:44;;;;;;;23.25;10.98;;;205.20;2252.80;;;;;;5045056;28;20132;-78
2022/02/19 06:41:10;;;;;;;;;;;205.20;2201.60;;;;;;5043665;28;20531;-77
2022/02/19 06:43:36;;;;;;;31.40;12.27;;;205.00;2252.80;;;;;;5037590;28;19912;-83
2022/02/19 06:46:02;;;;;;;;;;;205.00;2252.80;;;;;;5033734;28;20030;-79
2022/02/19 06:48:28;;;;;;;19.73;6.60;;;205.10;2252.80;;;;;;5033611;28;20044;-80
2022/02/19 06:50:53;;;;;;;;;;;205.20;2252.80;;;;;;5033822;28;20088;-79
2022/02/19 06:53:20;;;;;;;14.45;6.15;;;205.20;2252.80;;;;;;5033276;28;19905;-79
2022/02/19 06:55:46;;;;;;;18.52;9.13;;;205.20;2252.80;;;;;;5032375;28;20507;-80
2022/02/19 06:58:11;;;;;;;;;;;205.20;2252.80;;;;;;5047341;28;20060;-78
2022/02/19 07:00:37;;;;;;;16.10;6.35;;;205.30;2252.80;;;;;;5053054;28;19916;-82
2022/02/19 07:03:02;;;;;;;;;;;205.20;2252.80;;;;;;5054349;28;20072;-78
2022/02/19 07:05:28;;;;;;;20.25;7.88;;;205.40;2252.80;;;;;;5052835;28;19998;-78
2022/02/19 07:07:54;;;;;;;;;;;205.30;2252.80;;;;;;5053008;28;20032;-78
2022/02/19 07:10:19;;;;;;;17.70;6.85;;;205.40;2252.80;;;;;;5052960;28;19905;-78
2022/02/19 07:12:45;;;;;;;;;;;205.40;2252.80;;;;;;5052950;28;20061;-77
2022/02/19 07:15:11;;;;;;;10.65;5.25;;;205.60;2252.80;;;;;;5052334;28;19995;-80
2022/02/19 07:17:51;;;;;;;13.77;5.75;;;205.70;2252.80;;;;;;5052627;28;20099;-79
2022/02/19 07:20:21;;;;;;;17.63;6.38;;;205.70;2252.80;;;;;;5052006;28;20033;-79
2022/02/19 07:22:48;;;;;;;17.02;9.05;;;205.70;2252.80;;;;;;5052682;28;20076;-79
2022/02/19 07:25:15;;;;;;;24.63;8.75;;;230.40;2252.80;;;;;;5046974;28;20029;-78
2022/02/19 07:27:43;;;;;;;14.13;6.72;;;230.40;2252.80;;;;;;5033933;28;20084;-79
2022/02/19 07:30:13;;;;;;;19.30;7.22;;;230.50;2252.80;;;;;;5043132;28;20029;-80
2022/02/19 07:32:39;;;;;;;22.85;8.63;;;230.60;2252.80;;;;;;5032139;28;20099;-79
2022/02/19 07:35:07;;;;;;;;;;;230.50;2252.80;;;;;;5032359;28;20361;-82
2022/02/19 07:37:36;;;;;;;27.02;12.02;;;230.50;2252.80;;;;;;5032305;28;19909;-79
2022/02/19 07:40:07;;;;;;;38.17;15.32;;;230.50;2252.80;;;;;;5032334;28;20029;-80
2022/02/19 07:42:33;;;;;;;34.85;14.48;;;230.70;2252.80;;;;;;5032189;28;20021;-80
2022/02/19 07:45:00;;;;;;;34.90;13.70;;;230.80;2252.80;;;;;;5032358;28;20029;-80
2022/02/19 07:47:31;;;;;;;30.75;10.98;;;230.90;2252.80;;;;;;5032406;28;20021;-82
2022/02/19 07:58:23;;;;;;;23.20;9.38;;;231.30;2176.00;;;;;;5045216;28;20043;-77
2022/02/19 08:00:57;;;;;;;25.88;10.52;;;231.30;2201.60;;;;;;5051835;28;20052;-79
2022/02/19 08:03:25;;;;;;;22.75;9.75;;;256.20;2176.00;;;;;;5052609;28;20059;-81
2022/02/19 08:05:51;;;;;;;30.15;12.45;;;256.30;2150.40;;;;;;5053014;28;20119;-81
2022/02/19 08:08:18;;;;;;;25.90;9.32;;;256.50;2099.20;;;;;;5051788;28;20036;-85
2022/02/19 08:10:45;;;;;;;28.33;9.52;;;256.70;2073.60;;;;;;5051731;28;20112;-83
2022/02/19 08:13:15;;;;;;;24.52;9.98;;;256.70;2073.60;;;;;;5051953;28;20021;-80
2022/02/19 08:15:42;;;;;;;22.55;11.20;;;256.90;2048.00;;;;;;5044967;28;20424;-80
2022/02/19 08:18:09;;;;;;;21.77;10.18;;;256.90;2048.00;;;;;;5053006;28;20384;-78
2022/02/19 08:20:37;;;;;;;21.50;10.70;;;281.60;2073.60;;;;;;5051253;28;20025;-78
2022/02/19 08:23:04;;;;;;;27.42;8.85;;;281.70;2099.20;;;;;;5052505;28;20111;-77
2022/02/19 08:25:30;;;;;;;17.95;7.93;;;281.90;2073.60;;;;;;5051254;28;20017;-78
2022/02/19 08:27:57;;;;;;;23.20;9.23;;;282.00;2048.00;;;;;;5052860;28;20021;-77
2022/02/19 08:30:23;;;;;;;14.63;8.25;;;282.00;2048.00;;;;;;5050694;28;20036;-78
2022/02/19 08:32:49;;;;;;;19.17;7.50;;;282.10;2048.00;;;;;;5051196;28;20028;-79
2022/02/19 08:35:16;;;;;;;20.75;8.68;;;282.20;2022.40;;;;;;5052428;28;20110;-77
2022/02/19 08:37:42;;;;;;;15.65;6.05;;;282.20;2022.40;;;;;;5051332;28;20033;-80
2022/02/19 08:40:09;;;;;;;14.30;6.22;;;282.30;2073.60;;;;;;5053037;28;20479;-84
2022/02/19 08:42:36;;;;;;;17.60;6.72;;;282.30;2022.40;;;;;;5052767;28;20090;-83
2022/02/19 08:45:03;;;;;;;16.95;7.00;;;282.50;2022.40;;;;;;5052808;28;20025;-81
2022/02/19 08:47:29;;;;;;;14.35;6.82;;;282.50;1996.80;;;;;;5051479;28;20017;-82
2022/02/19 08:49:54;;;;;;;19.17;6.70;;;307.20;1996.80;;;;;;5045216;28;20497;-82
2022/02/19 08:52:20;;;;;;;;;;;307.30;1996.80;;;;;;5040072;28;20048;-81
2022/02/19 08:54:46;;;;;;;16.10;7.05;;;307.30;1996.80;;;;;;5040395;28;19905;-81
2022/02/19 08:57:11;;;;;;;;;;;307.50;1971.20;;;;;;5043633;28;21066;-83
2022/02/19 08:59:37;;;;;;;10.75;4.90;;;307.40;1996.80;;;;;;5044187;28;19939;-82
2022/02/19 09:02:03;;;;;;;;;;;307.50;2022.40;;;;;;5051716;28;20082;-82
2022/02/19 09:04:28;;;;;;;13.75;6.35;;;307.60;2022.40;;;;;;5046054;28;20369;-81
2022/02/19 09:06:54;;;;;;;;;;;307.70;2022.40;;;;;;5041390;28;20029;-80
2022/02/19 09:09:20;;;;;;;20.10;9.57;;;307.80;2022.40;;;;;;5043009;28;19912;-81
2022/02/19 09:11:45;;;;;;;;;;;307.90;1996.80;;;;;;5030965;28;20036;-80
2022/02/19 09:14:11;;;;;;;16.40;7.25;;;308.00;2022.40;;;;;;5031298;28;19951;-81
2022/02/19 09:16:37;;;;;;;14.35;6.65;;;308.00;1996.80;;;;;;5032411;28;20122;-82
2022/02/19 09:19:07;;;;;;;12.85;7.03;;;308.00;1971.20;;;;;;5031234;28;20191;-82
2022/02/19 09:21:34;;;;;;;29.60;12.68;;;308.00;1971.20;;;;;;5031073;28;20025;-81
2022/02/19 09:24:00;;;;;;;23.55;10.43;;;308.10;1971.20;;;;;;5039076;28;20509;-80
2022/02/19 09:26:26;;;;;;;18.95;8.93;;;307.90;1945.60;;;;;;5041642;28;20036;-83
2022/02/19 09:28:52;;;;;;;15.98;7.53;;;308.10;1945.60;;;;;;5038619;28;20025;-80
2022/02/19 09:31:22;;;;;;;14.07;7.53;;;308.10;1945.60;;;;;;5040089;28;20360;-79
2022/02/19 09:33:49;;;;;;;19.60;8.20;;;332.80;1971.20;;;;;;5039444;28;20036;-81
2022/02/19 09:36:15;;;;;;;20.45;11.73;;;332.80;1996.80;;;;;;5031094;28;20029;-80
2022/02/19 09:38:42;;;;;;;23.05;12.48;;;332.80;1996.80;;;;;;5034379;28;20123;-81
2022/02/19 09:41:12;;;;;;;16.70;8.65;;;332.80;1996.80;;;;;;5051036;28;20025;-81
2022/02/19 09:43:38;;;;;;;20.63;10.65;;;308.10;1971.20;;;;;;5042894;28;20033;-80
2022/02/19 09:46:05;;;;;;;22.45;12.38;;;308.10;1996.80;;;;;;5034726;28;20120;-81
2022/02/19 09:48:32;;;;;;;21.20;9.43;;;308.10;1971.20;;;;;;5034465;28;20471;-82
2022/02/19 09:50:59;;;;;;;22.50;10.52;;;308.10;1971.20;;;;;;5034667;28;20029;-81
2022/02/19 09:53:25;;;;;;;26.30;11.77;;;308.10;1996.80;;;;;;5034295;28;20029;-82
2022/02/19 09:55:51;;;;;;;34.40;14.23;;;308.00;1996.80;;;;;;5034076;28;20075;-79
2022/02/19 09:58:17;;;;;;;45.03;18.23;;;308.00;2022.40;;;;;;5033977;28;20033;-78
2022/02/19 10:00:48;;;;;;;45.75;18.13;;;308.00;2022.40;;;;;;5034495;28;20419;-81
2022/02/19 10:03:22;;;;;;;53.15;20.05;;;308.00;2022.40;;;;;;5033782;28;20491;-80
2022/02/19 10:05:49;;;;;;;54.83;23.23;;;308.00;2048.00;;;;;;5034484;28;20037;-82
2022/02/19 10:08:15;;;;;;;52.78;23.45;;;308.00;2048.00;;;;;;5034440;28;20049;-80
2022/02/19 10:11:03;;;;;;;36.13;17.48;;;308.10;2048.00;;;;;;5035281;28;20017;-81
2022/02/19 10:13:38;;;;;;;33.08;16.00;;;308.10;2048.00;;;;;;5034982;28;20539;-81
2022/02/19 10:16:06;;;;;;;28.63;14.25;;;308.10;2048.00;;;;;;5033674;28;20033;-78
2022/02/19 10:18:42;;;;;;;32.72;15.75;;;332.80;2073.60;;;;;;5034676;28;20037;-80
2022/02/19 10:21:20;;;;;;;33.55;13.52;;;332.90;2048.00;;;;;;5033895;28;20032;-79
2022/02/19 10:23:48;;;;;;;22.83;10.55;;;333.00;1996.80;;;;;;5033775;28;20121;-80
2022/02/19 10:26:15;;;;;;;20.35;9.77;;;333.20;1996.80;;;;;;5033719;28;20125;-81
2022/02/19 10:28:58;;;;;;;15.93;7.93;;;333.30;1920.00;;;;;;5033987;28;20024;-79
2022/02/19 10:31:24;;;;;;;17.65;9.27;;;333.40;1894.40;;;;;;5033449;28;20056;-80
2022/02/19 10:34:03;;;;;;;21.38;7.15;;;333.70;1894.40;;;;;;5033656;28;20029;-80
2022/02/19 10:36:46;;;;;;;25.05;8.00;;;358.50;1843.20;;;;;;5034862;28;20060;-80
2022/02/19 10:39:12;;;;;;;18.17;7.07;;;358.70;1843.20;;;;;;5034021;28;20029;-79
2022/02/19 10:41:39;;;;;;;16.40;6.82;;;359.00;1766.40;;;;;;5044458;28;20032;-81
2022/02/19 10:44:26;;;;;;;16.25;8.75;;;359.00;1792.00;;;;;;5043923;28;20026;-81
2022/02/19 10:46:54;;;;;;;14.93;7.28;;;359.10;1766.40;;;;;;5050085;28;20467;-82
2022/02/19 10:49:20;;;;;;;13.10;6.57;;;359.30;1766.40;;;;;;5053531;28;20394;-82
2022/02/19 10:51:46;;;;;;;19.50;7.53;;;359.20;1766.40;;;;;;5053452;28;20029;-80
2022/02/19 10:54:18;;;;;;;11.75;6.45;;;359.00;1766.40;;;;;;5052407;28;20052;-79
2022/02/19 10:56:43;;;;;;;18.30;6.70;;;358.80;1766.40;;;;;;5053502;28;20037;-83
2022/02/19 10:59:13;;;;;;;15.95;5.63;;;359.10;1766.40;;;;;;5054085;28;20509;-79
2022/02/19 11:01:39;;;;;;;12.65;6.22;;;359.00;1740.80;;;;;;5055989;28;20103;-80
2022/02/19 11:04:09;;;;;;;11.35;6.63;;;359.00;1766.40;;;;;;5052561;28;20033;-80
2022/02/19 11:06:36;;;;;;;13.95;6.63;;;358.80;1766.40;;;;;;5051853;28;20059;-83
2022/02/19 11:09:03;;;;;;;16.52;7.65;;;358.70;1792.00;;;;;;5042102;28;20034;-82
2022/02/19 11:11:31;;;;;;;17.30;9.40;;;358.80;1817.60;;;;;;5042954;28;20387;-82
2022/02/19 11:13:57;;;;;;;14.57;6.63;;;358.60;1843.20;;;;;;5050501;28;20120;-82
2022/02/19 11:16:24;;;;;;;13.70;6.85;;;358.60;1868.80;;;;;;5052773;28;20053;-82
2022/02/19 11:18:50;;;;;;;19.25;7.30;;;358.40;1843.20;;;;;;5052850;28;20091;-78
2022/02/19 11:21:17;;;;;;;14.35;6.25;;;333.70;1817.60;;;;;;5052709;28;20021;-78
2022/02/19 11:23:45;;;;;;;10.60;5.20;;;333.70;1817.60;;;;;;5052518;28;20027;-81
2022/02/19 11:26:14;;;;;;;13.25;6.10;;;333.60;1817.60;;;;;;5052311;28;20025;-81
2022/02/19 11:28:40;;;;;;;12.93;5.22;;;333.50;1817.60;;;;;;5053957;28;20049;-81
2022/02/19 11:31:08;;;;;;;16.45;7.72;;;333.40;1817.60;;;;;;5052351;28;20062;-79
2022/02/19 11:33:36;;;;;;;23.23;11.07;;;333.40;1843.20;;;;;;5047412;28;20094;-79
2022/02/19 11:36:07;;;;;;;19.15;10.27;;;333.40;1843.20;;;;;;5044246;28;20032;-80
2022/02/19 11:38:35;;;;;;;18.23;8.50;;;333.40;1843.20;;;;;;5041291;28;20029;-82
2022/02/19 11:41:09;;;;;;;17.58;6.75;;;333.50;1843.20;;;;;;5032409;28;20022;-80
2022/02/19 11:43:39;;;;;;;12.43;7.22;;;333.60;1792.00;;;;;;5031735;28;20044;-80
2022/02/19 11:46:15;;;;;;;16.02;7.35;;;333.60;1792.00;;;;;;5033693;28;20570;-80
2022/02/19 11:48:46;;;;;;;29.38;7.97;;;333.60;1792.00;;;;;;5039940;28;20120;-80
2022/02/19 11:51:35;;;;;;;25.73;8.50;;;333.70;1766.40;;;;;;5038737;28;20068;-79
2022/02/19 11:54:04;;;;;;;20.45;9.57;;;333.70;1715.20;;;;;;5042078;28;20052;-78
2022/02/19 11:56:35;;;;;;;27.67;12.45;;;333.70;1715.20;;;;;;5040618;28;20024;-77
2022/02/19 11:59:02;;;;;;;19.80;10.48;;;333.70;1715.20;;;;;;5041143;28;20426;-78
2022/02/19 12:01:29;;;;;;;13.05;7.72;;;333.70;1715.20;;;;;;5041706;28;20509;-79
2022/02/19 12:04:12;;;;;;;10.68;4.95;;;358.40;1740.80;;;;;;5045487;28;20359;-79
2022/02/19 12:06:45;;;;;;;11.57;5.10;;;333.70;1689.60;;;;;;5051422;28;20032;-76
2022/02/19 12:09:18;;;;;;;12.07;6.13;;;333.70;1689.60;;;;;;5051530;28;20554;-80
2022/02/19 12:11:59;;;;;;;10.80;4.65;;;333.70;1689.60;;;;;;5051765;28;20083;-80
2022/02/19 12:14:56;;;;;;;16.45;4.22;;;333.70;1715.20;;;;;;5051420;28;20103;-80
2022/02/19 12:17:22;;;;;;;17.13;5.85;;;358.40;1664.00;;;;;;5047968;28;20028;-80
2022/02/19 12:20:00;;;;;;;13.73;6.50;;;358.50;1638.40;;;;;;5051209;28;20036;-82
2022/02/19 12:22:44;;;;;;;17.02;4.70;;;358.50;1664.00;;;;;;5039189;28;20391;-79
2022/02/19 12:25:12;;;;;;;11.27;5.22;;;358.60;1638.40;;;;;;5038893;28;20033;-78
2022/02/19 12:27:39;;;;;;;8.50;3.78;;;358.60;1638.40;;;;;;5040344;28;20029;-81
2022/02/19 12:30:22;;;;;;;11.68;3.13;;;358.60;1612.80;;;;;;5037664;28;20049;-80
2022/02/19 12:32:58;;;;;;;9.70;2.97;;;358.70;1587.20;;;;;;5034497;28;20494;-79
2022/02/19 12:35:44;;;;;;;5.22;2.83;;;358.70;1587.20;;;;;;5037643;28;20033;-79
2022/02/19 12:38:14;;;;;;;6.47;3.07;;;358.80;1561.60;;;;;;5020042;28;20037;-79